Main page
METAR-TAF:

METAR-TAF

Airports :

Qurghonteppa International Airport

Qurghonteppa, Tajikistan

latitude: 37-51-44N, longitude: 068-51-46E, elevation: 449 m

Current weather observation

The report was made 29 minutes ago, at 01:30 UTC
Calm wind
Temperature 4°C
Humidity 93%
Pressure 1024 hPa
Visibility: 8000 m
Scattered clouds at a height of 13300 ft

METAR: UTDT 180130Z 00000MPS 8000 SCT133 04/03 Q1024 R35/////// RMK QFE728/0971

Time: 06:59 (01:59 UTC)

Forecast

The report was made 1 hour and 59 minutes ago, at 00:00 UTC
Forecast valid from 18 at 01 UTC to 18 at 10 UTC
Wind 4 kt from variable directions
Visibility: 3100 m
Few clouds at a height of 6600 ft, Cumulonimbus.
Broken clouds at a height of 13000 ft
mist

TAF: UTDT 180000Z 1801/1810 VRB02MPS 3100 BR FEW066CB BKN130

Weather observations and forecasts of more than 4000 airports (METAR and TAF reports).

The available stations are represented by yellow and red dots on the map.

Hover mouse over dot to see the name of the station.

Then click to see weather observations and forecasts.

To change the map : click on the green buttons with a black cross to zoom in, on the green button with a dash to zoom out, or on the green arrows for adjacent maps.


METAR-TAF: